createdAt,value
2023-04-16T00:00:14.610Z,9.44
2023-04-16T00:03:05.162Z,9.43
2023-04-16T00:05:34.682Z,9.40
2023-04-16T00:08:03.792Z,9.39
2023-04-16T00:10:33.145Z,9.43
2023-04-16T00:13:02.363Z,9.41
2023-04-16T00:15:31.409Z,9.38
2023-04-16T00:18:00.351Z,9.35
2023-04-16T00:20:30.838Z,9.38
2023-04-16T00:22:59.892Z,9.39
2023-04-16T00:25:28.901Z,9.33
2023-04-16T00:27:57.750Z,9.34
2023-04-16T00:30:26.800Z,9.36
2023-04-16T00:32:55.861Z,9.39
2023-04-16T00:35:25.011Z,9.43
2023-04-16T00:37:55.254Z,9.34
2023-04-16T00:40:24.458Z,9.29
2023-04-16T00:42:53.679Z,9.29
2023-04-16T00:45:22.708Z,9.31
2023-04-16T00:47:51.719Z,9.27
2023-04-16T00:50:20.993Z,9.33
2023-04-16T00:52:50.214Z,9.26
2023-04-16T00:55:21.512Z,9.23
2023-04-16T00:57:50.499Z,9.29
2023-04-16T01:00:19.524Z,9.24
2023-04-16T01:02:48.906Z,9.19
2023-04-16T01:05:18.115Z,9.16
2023-04-16T01:07:47.078Z,9.14
2023-04-16T01:10:16.272Z,9.14
2023-04-16T01:12:46.649Z,9.11
2023-04-16T01:15:15.922Z,9.10
2023-04-16T01:17:45.412Z,9.08
2023-04-16T01:20:14.754Z,9.06
2023-04-16T01:22:44.868Z,9.09
2023-04-16T01:25:15.263Z,9.10
2023-04-16T01:27:44.268Z,9.06
2023-04-16T01:30:13.542Z,9.20
2023-04-16T01:32:52.996Z,9.10
2023-04-16T01:35:22.122Z,9.05
2023-04-16T01:37:53.913Z,8.98
2023-04-16T01:40:23.170Z,8.98
2023-04-16T01:42:52.267Z,8.98
2023-04-16T01:45:22.058Z,8.95
2023-04-16T01:47:51.293Z,8.99
2023-04-16T01:50:20.492Z,8.97
2023-04-16T01:52:50.062Z,8.95
2023-04-16T01:55:20.769Z,8.90
2023-04-16T01:57:49.708Z,8.90
2023-04-16T02:00:18.908Z,8.85
2023-04-16T02:02:49.321Z,8.82
2023-04-16T02:05:27.120Z,8.85
2023-04-16T02:07:56.193Z,8.82
2023-04-16T02:10:26.592Z,8.82
2023-04-16T02:12:56.573Z,8.83
2023-04-16T02:15:26.194Z,8.81
2023-04-16T02:17:57.228Z,8.80
2023-04-16T02:20:27.872Z,8.80
2023-04-16T02:23:01.807Z,8.82
2023-04-16T02:25:32.956Z,8.80
2023-04-16T02:28:01.950Z,8.80
2023-04-16T02:31:21.797Z,8.76
2023-04-16T02:33:50.793Z,8.74
2023-04-16T02:36:19.824Z,8.76
2023-04-16T02:38:48.705Z,8.74
2023-04-16T02:41:19.192Z,8.74
2023-04-16T02:43:48.046Z,8.71
2023-04-16T02:46:17.265Z,8.71
2023-04-16T02:48:46.104Z,8.72
2023-04-16T02:51:15.382Z,8.68
2023-04-16T02:53:46.051Z,8.77
2023-04-16T02:56:15.869Z,8.69
2023-04-16T02:58:45.978Z,8.72
2023-04-16T03:01:16.508Z,8.70
2023-04-16T03:03:45.543Z,8.68
2023-04-16T03:06:14.703Z,8.63
2023-04-16T03:08:43.536Z,8.65
2023-04-16T03:11:12.741Z,8.64
2023-04-16T03:13:41.492Z,8.63
2023-04-16T03:16:12.179Z,8.60
2023-04-16T03:18:41.281Z,8.61
2023-04-16T03:21:10.702Z,8.60
2023-04-16T03:23:40.064Z,8.59
2023-04-16T03:26:09.104Z,8.59
2023-04-16T03:28:37.992Z,8.57
2023-04-16T03:31:07.442Z,8.58
2023-04-16T03:33:38.793Z,8.59
2023-04-16T03:36:08.377Z,8.57
2023-04-16T03:38:37.412Z,8.61
2023-04-16T03:41:06.496Z,8.57
2023-04-16T03:43:35.833Z,8.60
2023-04-16T03:46:04.958Z,8.71
2023-04-16T03:48:34.205Z,8.57
2023-04-16T03:51:04.709Z,8.53
2023-04-16T03:53:35.076Z,8.52
2023-04-16T03:56:04.477Z,8.51
2023-04-16T03:58:33.229Z,8.50
2023-04-16T04:01:02.384Z,8.43
2023-04-16T04:03:32.086Z,8.49
2023-04-16T04:06:01.490Z,8.47
2023-04-16T04:08:33.838Z,8.46
2023-04-16T04:11:03.037Z,8.45
2023-04-16T04:13:33.412Z,8.42
2023-04-16T04:16:02.588Z,8.54
2023-04-16T04:18:31.915Z,8.44
2023-04-16T04:21:05.762Z,8.42
2023-04-16T04:23:36.988Z,8.41
2023-04-16T04:26:07.921Z,8.38
2023-04-16T04:28:37.241Z,8.41
2023-04-16T04:31:07.098Z,8.40
2023-04-16T04:33:36.021Z,8.37
2023-04-16T04:36:05.106Z,8.37
2023-04-16T04:38:36.731Z,8.36
2023-04-16T04:41:06.648Z,8.33
2023-04-16T04:43:38.604Z,8.33
2023-04-16T04:46:08.575Z,8.33
2023-04-16T04:48:37.711Z,8.34
2023-04-16T04:51:06.904Z,8.35
2023-04-16T04:53:37.166Z,8.34
2023-04-16T04:56:12.109Z,8.35
2023-04-16T04:58:42.590Z,8.36
2023-04-16T05:01:14.788Z,8.35
2023-04-16T05:03:43.831Z,8.37
2023-04-16T05:06:13.035Z,8.40
2023-04-16T05:08:43.217Z,8.39
2023-04-16T05:11:12.364Z,8.40
2023-04-16T05:13:41.361Z,8.40
2023-04-16T05:16:10.540Z,8.43
2023-04-16T05:18:39.327Z,8.42
2023-04-16T05:21:08.343Z,8.45
2023-04-16T05:23:37.429Z,8.40
2023-04-16T05:26:07.933Z,8.41
2023-04-16T05:28:36.899Z,8.43
2023-04-16T05:31:06.013Z,8.45
2023-04-16T05:33:34.934Z,8.44
2023-04-16T05:36:04.013Z,8.44
2023-04-16T05:38:32.801Z,8.51
2023-04-16T05:41:02.079Z,8.54
2023-04-16T05:43:32.749Z,8.63
2023-04-16T05:46:02.579Z,8.52
2023-04-16T05:48:31.326Z,8.50
2023-04-16T05:51:02.366Z,8.55
2023-04-16T05:53:31.212Z,8.61
2023-04-16T05:56:00.409Z,8.58
2023-04-16T05:58:29.269Z,8.63
2023-04-16T06:00:59.707Z,8.63
2023-04-16T06:03:28.829Z,8.65
2023-04-16T06:05:58.220Z,8.69
2023-04-16T06:08:27.068Z,8.73
2023-04-16T06:10:56.612Z,8.74
2023-04-16T06:13:26.046Z,8.74
2023-04-16T06:15:55.159Z,8.80
2023-04-16T06:18:25.684Z,8.85
2023-04-16T06:20:54.976Z,8.85
2023-04-16T06:23:23.971Z,8.91
2023-04-16T06:25:53.062Z,8.96
2023-04-16T06:28:22.010Z,8.99
2023-04-16T06:30:51.047Z,8.99
2023-04-16T06:33:19.944Z,9.00
2023-04-16T06:35:50.702Z,9.05
2023-04-16T06:38:19.854Z,9.08
2023-04-16T06:40:50.916Z,9.10
2023-04-16T06:43:19.880Z,9.13
2023-04-16T06:45:49.069Z,9.18
2023-04-16T06:48:17.841Z,9.18
2023-04-16T06:50:47.085Z,9.19
2023-04-16T06:53:17.426Z,9.14
2023-04-16T06:55:46.714Z,9.26
2023-04-16T06:58:15.662Z,9.29
2023-04-16T07:00:44.946Z,9.25
2023-04-16T07:03:13.928Z,9.28
2023-04-16T07:05:43.265Z,9.32
2023-04-16T07:08:12.259Z,9.35
2023-04-16T07:10:42.963Z,9.30
2023-04-16T07:13:12.036Z,9.32
2023-04-16T07:15:41.180Z,9.34
2023-04-16T07:18:10.365Z,9.33
2023-04-16T07:20:39.686Z,9.41
2023-04-16T07:23:08.554Z,9.44
2023-04-16T07:25:37.752Z,9.50
2023-04-16T07:28:07.978Z,9.44
2023-04-16T07:30:37.863Z,9.50
2023-04-16T07:33:06.744Z,9.52
2023-04-16T07:35:36.466Z,9.55
2023-04-16T07:38:05.983Z,9.55
2023-04-16T07:40:35.584Z,9.57
2023-04-16T07:43:04.538Z,9.55
2023-04-16T07:45:35.626Z,9.58
2023-04-16T07:48:05.568Z,9.61
2023-04-16T07:50:34.743Z,9.62
2023-04-16T07:53:03.829Z,9.65
2023-04-16T07:55:33.016Z,9.60
2023-04-16T07:58:02.645Z,9.62
2023-04-16T08:00:31.764Z,9.65
2023-04-16T08:03:02.374Z,9.66
2023-04-16T08:05:32.901Z,9.72
2023-04-16T08:08:02.951Z,9.75
2023-04-16T08:10:32.110Z,9.70
2023-04-16T08:13:01.369Z,9.70
2023-04-16T08:15:30.915Z,9.70
2023-04-16T08:18:00.524Z,9.73
2023-04-16T08:20:31.490Z,9.79
2023-04-16T08:23:00.809Z,9.85
2023-04-16T08:25:29.826Z,9.94
2023-04-16T08:27:58.593Z,9.94
2023-04-16T08:30:27.714Z,9.98
2023-04-16T08:32:56.599Z,10.01
2023-04-16T08:35:25.808Z,10.11
2023-04-16T08:37:57.879Z,10.26
2023-04-16T08:40:28.151Z,10.35
2023-04-16T08:42:59.415Z,10.50
2023-04-16T08:45:28.793Z,10.69
2023-04-16T08:47:57.787Z,10.85
2023-04-16T08:50:28.431Z,10.98
2023-04-16T08:52:59.831Z,11.13
2023-04-16T08:55:33.652Z,11.18
2023-04-16T08:58:05.240Z,11.29
2023-04-16T09:00:35.027Z,11.38
2023-04-16T09:03:05.259Z,11.47
2023-04-16T09:05:35.026Z,11.53
2023-04-16T09:08:05.791Z,11.59
2023-04-16T09:10:35.818Z,11.59
2023-04-16T09:13:05.186Z,11.63
2023-04-16T09:15:36.462Z,11.67
2023-04-16T09:18:05.814Z,11.73
2023-04-16T09:20:34.928Z,11.73
2023-04-16T09:23:05.057Z,11.76
2023-04-16T09:25:34.596Z,11.73
2023-04-16T09:28:03.499Z,11.80
2023-04-16T09:30:33.477Z,11.83
2023-04-16T09:33:16.726Z,11.90
2023-04-16T09:35:49.672Z,11.92
2023-04-16T09:38:20.441Z,11.92
2023-04-16T09:41:06.647Z,11.99
2023-04-16T09:43:35.653Z,11.96
2023-04-16T09:46:08.304Z,11.99
2023-04-16T09:48:37.779Z,11.93
2023-04-16T09:51:07.590Z,12.01
2023-04-16T09:53:37.941Z,12.07
2023-04-16T09:56:07.887Z,12.15
2023-04-16T09:58:37.777Z,12.27
2023-04-16T10:01:08.736Z,12.16
2023-04-16T10:03:40.071Z,12.17
2023-04-16T10:06:11.106Z,12.23
2023-04-16T10:08:44.028Z,12.26
2023-04-16T10:11:13.439Z,12.24
2023-04-16T10:13:42.286Z,12.26
2023-04-16T10:16:11.895Z,12.26
2023-04-16T10:18:42.986Z,12.30
2023-04-16T10:21:12.837Z,12.25
2023-04-16T10:23:43.480Z,12.29
2023-04-16T10:26:12.678Z,12.34
2023-04-16T10:28:41.807Z,12.37
2023-04-16T10:31:11.216Z,12.43
2023-04-16T10:33:41.010Z,12.51
2023-04-16T10:36:11.365Z,12.54
2023-04-16T10:38:41.157Z,12.65
2023-04-16T10:41:11.780Z,12.66
2023-04-16T10:43:42.028Z,12.68
2023-04-16T10:46:21.274Z,12.80
2023-04-16T10:48:51.096Z,12.81
2023-04-16T10:51:27.844Z,12.91
2023-04-16T10:53:57.402Z,12.93
2023-04-16T10:56:28.082Z,12.97
2023-04-16T10:58:57.551Z,13.10
2023-04-16T11:01:34.054Z,13.14
2023-04-16T11:04:23.338Z,13.18
2023-04-16T11:07:01.873Z,13.20
2023-04-16T11:09:52.699Z,13.16
2023-04-16T11:12:23.939Z,13.24
2023-04-16T11:14:53.728Z,13.21
2023-04-16T11:17:23.399Z,13.26
2023-04-16T11:19:53.553Z,13.24
2023-04-16T11:22:22.986Z,13.21
2023-04-16T11:24:55.285Z,13.29
2023-04-16T11:27:26.423Z,13.37
2023-04-16T11:29:59.994Z,13.35
2023-04-16T11:32:29.650Z,13.40
2023-04-16T11:35:04.524Z,13.50
2023-04-16T11:37:35.180Z,13.53
2023-04-16T11:40:07.047Z,13.56
2023-04-16T11:42:40.631Z,13.60
2023-04-16T11:45:12.275Z,13.66
2023-04-16T11:47:45.680Z,13.56
2023-04-16T11:50:22.089Z,13.50
2023-04-16T11:52:51.752Z,13.60
2023-04-16T11:55:20.879Z,13.53
2023-04-16T11:57:51.731Z,13.51
2023-04-16T12:00:23.020Z,13.58
2023-04-16T12:02:55.365Z,13.66
2023-04-16T12:05:28.665Z,13.65
2023-04-16T12:07:58.388Z,13.76
2023-04-16T12:10:27.194Z,13.84
2023-04-16T12:13:12.376Z,13.83
2023-04-16T12:15:47.921Z,13.81
2023-04-16T12:18:17.309Z,13.89
2023-04-16T12:20:46.566Z,13.93
2023-04-16T12:23:25.637Z,14.02
2023-04-16T12:25:54.556Z,14.06
2023-04-16T12:28:34.924Z,14.12
2023-04-16T12:31:03.910Z,14.12
2023-04-16T12:33:33.122Z,14.09
2023-04-16T12:36:05.999Z,14.10
2023-04-16T12:38:35.234Z,14.12
2023-04-16T12:41:06.391Z,14.17
2023-04-16T12:43:37.450Z,14.09
2023-04-16T12:46:06.759Z,14.06
2023-04-16T12:48:36.259Z,14.01
2023-04-16T12:51:05.193Z,14.01
2023-04-16T12:53:34.196Z,13.98
2023-04-16T12:56:10.742Z,14.09
2023-04-16T12:58:41.539Z,14.10
2023-04-16T13:01:12.019Z,14.10
2023-04-16T13:03:41.498Z,14.18
2023-04-16T13:06:10.458Z,14.23
2023-04-16T13:08:39.578Z,14.21
2023-04-16T13:11:08.977Z,14.25
2023-04-16T13:13:38.256Z,14.32
2023-04-16T13:16:08.823Z,14.33
2023-04-16T13:18:38.634Z,14.28
2023-04-16T13:21:07.543Z,14.23
2023-04-16T13:23:45.312Z,14.23
2023-04-16T13:26:15.840Z,14.17
2023-04-16T13:28:45.075Z,14.07
2023-04-16T13:31:15.829Z,14.05
2023-04-16T13:33:45.170Z,14.04
2023-04-16T13:36:13.934Z,13.95
2023-04-16T13:38:43.364Z,13.88
2023-04-16T13:41:12.164Z,13.88
2023-04-16T13:43:41.441Z,13.89
2023-04-16T13:46:10.525Z,13.76
2023-04-16T13:48:41.202Z,13.77
2023-04-16T13:51:12.045Z,13.78
2023-04-16T13:53:41.282Z,13.81
2023-04-16T13:56:11.089Z,13.82
2023-04-16T13:58:40.937Z,13.72
2023-04-16T14:01:10.884Z,13.78
2023-04-16T14:03:42.221Z,13.92
2023-04-16T14:06:11.202Z,13.95
2023-04-16T14:08:40.213Z,13.96
2023-04-16T14:11:09.268Z,13.90
2023-04-16T14:13:38.395Z,14.00
2023-04-16T14:16:07.745Z,14.05
2023-04-16T14:18:41.152Z,14.05
2023-04-16T14:21:11.577Z,14.00
2023-04-16T14:23:41.164Z,14.03
2023-04-16T14:26:09.932Z,14.04
2023-04-16T14:28:39.579Z,14.06
2023-04-16T14:31:08.375Z,14.02
2023-04-16T14:33:37.515Z,14.08
2023-04-16T14:36:25.741Z,14.04
2023-04-16T14:38:57.839Z,13.95
2023-04-16T14:41:27.214Z,13.93
2023-04-16T14:43:56.284Z,13.80
2023-04-16T14:46:25.343Z,13.75
2023-04-16T14:48:54.401Z,13.81
2023-04-16T14:51:23.630Z,13.74
2023-04-16T14:53:52.963Z,13.73
2023-04-16T14:56:26.360Z,13.59
2023-04-16T14:58:55.706Z,13.53
2023-04-16T15:01:24.739Z,13.47
2023-04-16T15:03:56.298Z,13.51
2023-04-16T15:06:25.254Z,13.46
2023-04-16T15:08:54.300Z,13.33
2023-04-16T15:11:23.149Z,13.32
2023-04-16T15:13:53.600Z,13.33
2023-04-16T15:16:22.791Z,13.33
2023-04-16T15:18:51.952Z,13.23
2023-04-16T15:21:20.860Z,13.27
2023-04-16T15:23:49.882Z,13.33
2023-04-16T15:26:19.163Z,13.36
2023-04-16T15:28:48.294Z,13.39
2023-04-16T15:31:20.846Z,13.37
2023-04-16T15:33:50.493Z,13.42
2023-04-16T15:36:19.252Z,13.41
2023-04-16T15:38:48.270Z,13.39
2023-04-16T15:41:17.116Z,13.45
2023-04-16T15:43:46.295Z,13.55
2023-04-16T15:46:15.213Z,13.62
2023-04-16T15:48:46.147Z,13.64
2023-04-16T15:51:15.213Z,13.68
2023-04-16T15:53:45.437Z,13.70
2023-04-16T15:56:14.349Z,13.61
2023-04-16T15:58:43.422Z,13.63
2023-04-16T16:01:12.536Z,13.60
2023-04-16T16:03:42.019Z,13.60
2023-04-16T16:06:12.528Z,13.51
2023-04-16T16:08:43.646Z,13.43
2023-04-16T16:11:12.608Z,13.34
2023-04-16T16:13:42.827Z,13.25
2023-04-16T16:16:11.869Z,13.19
2023-04-16T16:18:42.102Z,13.02
2023-04-16T16:21:12.934Z,13.01
2023-04-16T16:23:42.506Z,12.86
2023-04-16T16:26:11.293Z,12.86
2023-04-16T16:28:41.106Z,12.81
2023-04-16T16:31:10.338Z,12.66
2023-04-16T16:33:40.775Z,12.61
2023-04-16T16:36:14.714Z,12.63
2023-04-16T16:38:46.516Z,12.60
2023-04-16T16:41:17.124Z,12.55
2023-04-16T16:43:46.245Z,12.43
2023-04-16T16:46:18.181Z,12.39
2023-04-16T16:48:48.469Z,12.29
2023-04-16T16:51:19.176Z,12.32
2023-04-16T16:53:48.384Z,12.28
2023-04-16T16:56:17.191Z,12.14
2023-04-16T16:58:47.776Z,12.07
2023-04-16T17:01:16.824Z,11.95
2023-04-16T17:03:46.410Z,11.86
2023-04-16T17:06:15.336Z,11.84
2023-04-16T17:08:51.365Z,11.83
2023-04-16T17:11:27.284Z,11.71
2023-04-16T17:13:57.820Z,11.64
2023-04-16T17:16:29.290Z,11.49
2023-04-16T17:18:59.563Z,11.33
2023-04-16T17:21:33.230Z,11.31
2023-04-16T17:24:06.648Z,11.31
2023-04-16T17:26:35.545Z,11.29
2023-04-16T17:29:05.928Z,11.09
2023-04-16T17:31:38.210Z,11.12
2023-04-16T17:34:11.561Z,11.04
2023-04-16T17:36:41.197Z,10.93
2023-04-16T17:39:11.832Z,10.90
2023-04-16T17:41:41.504Z,10.84
2023-04-16T17:44:11.934Z,10.73
2023-04-16T17:46:41.657Z,10.69
2023-04-16T17:49:13.538Z,10.61
2023-04-16T17:51:44.800Z,10.56
2023-04-16T17:54:18.184Z,10.49
2023-04-16T17:56:49.179Z,10.35
2023-04-16T17:59:18.566Z,10.31
2023-04-16T18:01:49.624Z,10.21
2023-04-16T18:04:21.688Z,10.13
2023-04-16T18:06:51.227Z,10.07
2023-04-16T18:09:22.506Z,10.01
2023-04-16T18:11:52.759Z,9.90
2023-04-16T18:14:25.322Z,9.80
2023-04-16T18:16:55.653Z,9.81
2023-04-16T18:19:25.519Z,9.79
2023-04-16T18:21:57.328Z,9.63
2023-04-16T18:24:29.532Z,9.61
2023-04-16T18:26:59.287Z,9.59
2023-04-16T18:29:33.905Z,9.45
2023-04-16T18:32:11.674Z,9.43
2023-04-16T18:34:43.497Z,9.36
2023-04-16T18:37:14.969Z,9.31
2023-04-16T18:39:52.474Z,9.26
2023-04-16T18:42:30.278Z,9.20
2023-04-16T18:45:00.179Z,9.15
2023-04-16T18:47:31.494Z,9.08
2023-04-16T18:50:02.308Z,9.04
2023-04-16T18:52:33.484Z,8.90
2023-04-16T18:55:06.618Z,8.88
2023-04-16T18:57:38.289Z,8.86
2023-04-16T19:00:12.957Z,8.84
2023-04-16T19:02:44.857Z,8.83
2023-04-16T19:05:16.377Z,8.79
2023-04-16T19:07:48.554Z,8.73
2023-04-16T19:10:19.801Z,8.71
2023-04-16T19:12:49.995Z,8.71
2023-04-16T19:15:19.226Z,8.68
2023-04-16T19:17:48.633Z,8.61
2023-04-16T19:20:20.428Z,8.49
2023-04-16T19:22:49.798Z,8.49
2023-04-16T19:25:22.465Z,8.52
2023-04-16T19:27:56.104Z,8.37
2023-04-16T19:30:25.610Z,8.46
2023-04-16T19:32:56.776Z,8.36
2023-04-16T19:35:27.179Z,8.24
2023-04-16T19:37:56.593Z,8.26
2023-04-16T19:40:27.672Z,8.21
2023-04-16T19:42:57.485Z,8.23
2023-04-16T19:45:27.536Z,8.18
2023-04-16T19:48:00.152Z,8.17
2023-04-16T19:50:29.620Z,8.15
2023-04-16T19:52:59.568Z,8.17
2023-04-16T19:55:31.250Z,8.08
2023-04-16T19:58:06.185Z,8.05
2023-04-16T20:00:35.664Z,8.04
2023-04-16T20:03:05.199Z,7.95
2023-04-16T20:05:36.057Z,7.88
2023-04-16T20:08:05.279Z,7.79
2023-04-16T20:10:36.136Z,7.72
2023-04-16T20:13:10.059Z,7.67
2023-04-16T20:15:39.899Z,7.70
2023-04-16T20:18:09.206Z,7.71
2023-04-16T20:20:38.703Z,7.66
2023-04-16T20:23:07.488Z,7.70
2023-04-16T20:25:41.518Z,7.62
2023-04-16T20:28:10.880Z,7.62
2023-04-16T20:30:41.325Z,7.60
2023-04-16T20:33:11.892Z,7.58
2023-04-16T20:35:42.299Z,7.60
2023-04-16T20:38:11.311Z,7.54
2023-04-16T20:40:44.669Z,7.45
2023-04-16T20:43:14.695Z,7.38
2023-04-16T20:45:46.242Z,7.35
2023-04-16T20:48:16.674Z,7.29
2023-04-16T20:50:49.620Z,7.32
2023-04-16T20:53:20.201Z,7.27
2023-04-16T20:55:52.724Z,7.19
2023-04-16T20:58:21.647Z,7.21
2023-04-16T21:00:51.345Z,7.12
2023-04-16T21:03:20.926Z,7.14
2023-04-16T21:05:51.085Z,7.12
2023-04-16T21:08:20.023Z,7.09
2023-04-16T21:10:49.418Z,7.07
2023-04-16T21:13:20.806Z,7.02
2023-04-16T21:15:49.973Z,6.98
2023-04-16T21:18:19.352Z,6.98
2023-04-16T21:20:48.482Z,6.84
2023-04-16T21:23:17.336Z,6.79
2023-04-16T21:25:46.718Z,6.70
2023-04-16T21:28:15.563Z,6.72
2023-04-16T21:30:46.363Z,6.71
2023-04-16T21:33:16.691Z,6.70
2023-04-16T21:35:46.133Z,6.63
2023-04-16T21:38:15.011Z,6.61
2023-04-16T21:40:44.057Z,6.51
2023-04-16T21:43:13.305Z,6.53
2023-04-16T21:45:42.317Z,6.50
2023-04-16T21:48:12.673Z,6.46
2023-04-16T21:50:41.888Z,6.45
2023-04-16T21:53:10.741Z,6.32
2023-04-16T21:55:40.683Z,6.24
2023-04-16T21:58:09.553Z,6.29
2023-04-16T22:00:38.623Z,6.31
2023-04-16T22:03:08.994Z,6.27
2023-04-16T22:05:39.772Z,6.28
2023-04-16T22:08:23.246Z,6.24
2023-04-16T22:10:57.055Z,6.20
2023-04-16T22:13:26.331Z,6.17
2023-04-16T22:15:56.033Z,6.20
2023-04-16T22:18:25.741Z,6.16
2023-04-16T22:20:57.164Z,6.16
2023-04-16T22:23:26.606Z,6.19
2023-04-16T22:25:56.274Z,6.19
2023-04-16T22:28:25.201Z,6.19
2023-04-16T22:30:54.205Z,6.25
2023-04-16T22:33:23.170Z,6.30
2023-04-16T22:35:52.984Z,6.30
2023-04-16T22:38:23.377Z,6.32
2023-04-16T22:40:52.576Z,6.34
2023-04-16T22:43:21.667Z,6.39
2023-04-16T22:45:50.869Z,6.41
2023-04-16T22:48:19.631Z,6.43
2023-04-16T22:50:51.177Z,6.48
2023-04-16T22:53:20.344Z,6.54
2023-04-16T22:55:51.243Z,6.57
2023-04-16T22:58:20.134Z,6.56
2023-04-16T23:00:49.176Z,6.60
2023-04-16T23:03:18.481Z,6.67
2023-04-16T23:05:47.538Z,6.66
2023-04-16T23:08:16.477Z,6.69
2023-04-16T23:10:45.634Z,6.72
2023-04-16T23:13:15.890Z,6.73
2023-04-16T23:15:45.982Z,6.74
2023-04-16T23:18:14.851Z,6.76
2023-04-16T23:20:44.167Z,6.80
2023-04-16T23:23:13.127Z,6.89
2023-04-16T23:25:42.273Z,6.89
2023-04-16T23:28:11.096Z,6.92
2023-04-16T23:30:41.626Z,6.87
2023-04-16T23:33:10.559Z,6.92
2023-04-16T23:35:39.648Z,6.92
2023-04-16T23:38:08.724Z,6.92
2023-04-16T23:40:38.345Z,6.92
2023-04-16T23:43:07.248Z,6.93
2023-04-16T23:45:36.313Z,6.93
2023-04-16T23:48:07.001Z,6.98
2023-04-16T23:50:36.211Z,6.99
2023-04-16T23:53:04.975Z,7.02
2023-04-16T23:55:34.151Z,7.09
2023-04-16T23:58:02.942Z,7.11
